createdAt,value
2022-11-16T00:01:20.361Z,100.00
2022-11-16T00:03:51.571Z,100.00
2022-11-16T00:06:25.367Z,100.00
2022-11-16T00:09:24.280Z,100.00
2022-11-16T00:11:56.616Z,100.00
2022-11-16T00:14:29.366Z,100.00
2022-11-16T00:17:00.065Z,100.00
2022-11-16T00:19:31.601Z,100.00
2022-11-16T00:22:04.187Z,100.00
2022-11-16T00:24:34.246Z,100.00
2022-11-16T00:27:04.263Z,100.00
2022-11-16T00:29:34.292Z,100.00
2022-11-16T00:32:05.009Z,100.00
2022-11-16T00:34:36.259Z,100.00
2022-11-16T00:37:09.346Z,100.00
2022-11-16T00:39:39.383Z,100.00
2022-11-16T00:42:09.827Z,100.00
2022-11-16T00:44:39.856Z,100.00
2022-11-16T00:47:09.879Z,100.00
2022-11-16T00:49:40.247Z,100.00
2022-11-16T00:52:12.854Z,100.00
2022-11-16T00:54:42.897Z,100.00
2022-11-16T00:57:13.391Z,100.00
2022-11-16T00:59:43.468Z,100.00
2022-11-16T01:02:13.487Z,100.00
2022-11-16T01:04:44.450Z,100.00
2022-11-16T01:07:17.229Z,100.00
2022-11-16T01:09:47.488Z,100.00
2022-11-16T01:12:17.676Z,100.00
2022-11-16T01:14:50.453Z,100.00
2022-11-16T01:17:20.643Z,100.00
2022-11-16T01:19:50.664Z,100.00
2022-11-16T01:22:24.076Z,100.00
2022-11-16T01:24:54.251Z,100.00
2022-11-16T01:27:25.888Z,100.00
2022-11-16T01:29:57.196Z,100.00
2022-11-16T01:32:27.449Z,100.00
2022-11-16T01:34:57.962Z,100.00
2022-11-16T01:37:34.177Z,100.00
2022-11-16T01:40:04.533Z,100.00
2022-11-16T01:42:36.255Z,100.00
2022-11-16T01:45:21.777Z,100.00
2022-11-16T01:47:57.035Z,100.00
2022-11-16T01:50:31.367Z,100.00
2022-11-16T01:53:08.727Z,100.00
2022-11-16T01:55:50.310Z,100.00
2022-11-16T01:58:30.492Z,100.00
2022-11-16T02:01:07.712Z,100.00
2022-11-16T02:03:45.380Z,100.00
2022-11-16T02:06:39.198Z,100.00
2022-11-16T02:10:01.199Z,100.00
2022-11-16T02:13:08.634Z,100.00
2022-11-16T02:15:50.822Z,100.00
2022-11-16T02:18:41.332Z,100.00
2022-11-16T02:21:33.219Z,100.00
2022-11-16T02:24:44.868Z,100.00
2022-11-16T02:27:59.987Z,100.00
2022-11-16T02:30:32.749Z,100.00
2022-11-16T02:33:11.619Z,100.00
2022-11-16T02:35:48.919Z,100.00
2022-11-16T02:38:24.327Z,100.00
2022-11-16T02:41:00.682Z,100.00
2022-11-16T02:43:41.174Z,100.00
2022-11-16T02:46:21.421Z,100.00
2022-11-16T02:48:59.044Z,100.00
2022-11-16T02:51:32.156Z,100.00
2022-11-16T02:54:13.135Z,100.00
2022-11-16T02:56:55.279Z,100.00
2022-11-16T02:59:36.369Z,100.00
2022-11-16T03:02:26.164Z,100.00
2022-11-16T03:05:05.355Z,100.00
2022-11-16T03:07:49.700Z,100.00
2022-11-16T03:10:36.476Z,100.00
2022-11-16T03:13:13.315Z,100.00
2022-11-16T03:15:46.124Z,100.00
2022-11-16T03:18:23.086Z,100.00
2022-11-16T03:20:58.305Z,100.00
2022-11-16T03:23:30.326Z,100.00
2022-11-16T03:26:03.341Z,100.00
2022-11-16T03:28:42.832Z,100.00
2022-11-16T03:31:21.034Z,100.00
2022-11-16T03:33:58.827Z,100.00
2022-11-16T03:36:35.311Z,100.00
2022-11-16T03:39:13.891Z,100.00
2022-11-16T03:41:47.725Z,100.00
2022-11-16T03:44:21.533Z,100.00
2022-11-16T03:46:51.861Z,100.00
2022-11-16T03:49:27.206Z,100.00
2022-11-16T03:51:58.147Z,100.00
2022-11-16T03:54:29.029Z,100.00
2022-11-16T03:56:59.075Z,100.00
2022-11-16T03:59:30.488Z,100.00
2022-11-16T04:02:00.963Z,100.00
2022-11-16T04:04:46.161Z,100.00
2022-11-16T04:07:28.775Z,100.00
2022-11-16T04:10:11.341Z,100.00
2022-11-16T04:12:58.923Z,100.00
2022-11-16T04:15:41.560Z,100.00
2022-11-16T04:18:25.938Z,100.00
2022-11-16T04:21:11.899Z,100.00
2022-11-16T04:23:54.667Z,100.00
2022-11-16T04:26:46.711Z,100.00
2022-11-16T04:29:14.934Z,100.00
2022-11-16T04:31:57.716Z,100.00
2022-11-16T04:34:40.610Z,100.00
2022-11-16T04:37:34.010Z,100.00
2022-11-16T04:40:05.185Z,100.00
2022-11-16T04:42:35.255Z,100.00
2022-11-16T04:45:20.565Z,100.00
2022-11-16T04:47:55.107Z,100.00
2022-11-16T04:50:30.318Z,100.00
2022-11-16T04:53:04.950Z,100.00
2022-11-16T04:55:40.542Z,100.00
2022-11-16T04:58:11.458Z,100.00
2022-11-16T05:00:41.981Z,100.00
2022-11-16T05:03:13.291Z,100.00
2022-11-16T05:05:43.347Z,100.00
2022-11-16T05:08:16.097Z,100.00
2022-11-16T05:10:48.302Z,100.00
2022-11-16T05:13:18.410Z,100.00
2022-11-16T05:15:49.076Z,100.00
2022-11-16T05:18:19.658Z,100.00
2022-11-16T05:21:04.293Z,100.00
2022-11-16T05:23:54.574Z,100.00
2022-11-16T05:26:26.899Z,100.00
2022-11-16T05:28:59.027Z,100.00
2022-11-16T05:31:29.483Z,100.00
2022-11-16T05:33:59.477Z,100.00
2022-11-16T05:36:29.817Z,100.00
2022-11-16T05:39:02.481Z,100.00
2022-11-16T05:41:35.645Z,100.00
2022-11-16T05:44:06.660Z,100.00
2022-11-16T05:46:37.247Z,100.00
2022-11-16T05:49:09.171Z,100.00
2022-11-16T05:51:41.330Z,100.00
2022-11-16T05:54:15.522Z,100.00
2022-11-16T05:56:47.484Z,100.00
2022-11-16T05:59:19.653Z,100.00
2022-11-16T06:01:53.588Z,100.00
2022-11-16T06:04:25.075Z,100.00
2022-11-16T06:06:57.454Z,100.00
2022-11-16T06:09:35.310Z,100.00
2022-11-16T06:12:14.779Z,100.00
2022-11-16T06:14:45.166Z,100.00
2022-11-16T06:17:15.954Z,100.00
2022-11-16T06:19:47.054Z,100.00
2022-11-16T06:22:17.102Z,100.00
2022-11-16T06:24:49.990Z,100.00
2022-11-16T06:27:21.336Z,100.00
2022-11-16T06:29:51.474Z,100.00
2022-11-16T06:32:21.634Z,100.00
2022-11-16T06:34:51.706Z,100.00
2022-11-16T06:37:22.357Z,100.00
2022-11-16T06:39:55.250Z,100.00
2022-11-16T06:42:26.450Z,100.00
2022-11-16T06:44:57.861Z,100.00
2022-11-16T06:47:32.068Z,100.00
2022-11-16T06:50:03.614Z,100.00
2022-11-16T06:52:34.030Z,100.00
2022-11-16T06:55:07.532Z,100.00
2022-11-16T06:57:40.225Z,100.00
2022-11-16T07:00:14.184Z,100.00
2022-11-16T07:02:44.701Z,100.00
2022-11-16T07:05:18.596Z,100.00
2022-11-16T07:07:50.423Z,100.00
2022-11-16T07:10:23.781Z,100.00
2022-11-16T07:12:54.164Z,100.00
2022-11-16T07:15:25.434Z,100.00
2022-11-16T07:17:55.557Z,100.00
2022-11-16T07:20:25.700Z,100.00
2022-11-16T07:22:55.831Z,100.00
2022-11-16T07:25:28.419Z,100.00
2022-11-16T07:28:01.405Z,100.00
2022-11-16T07:30:32.866Z,100.00
2022-11-16T07:33:20.142Z,100.00
2022-11-16T07:36:21.734Z,100.00
2022-11-16T07:38:51.766Z,100.00
2022-11-16T07:41:25.027Z,100.00
2022-11-16T07:44:11.888Z,100.00
2022-11-16T07:46:47.210Z,100.00
2022-11-16T07:49:22.013Z,100.00
2022-11-16T07:51:58.936Z,100.00
2022-11-16T07:54:42.489Z,100.00
2022-11-16T07:57:15.194Z,100.00
2022-11-16T07:59:46.356Z,100.00
2022-11-16T08:02:16.525Z,100.00
2022-11-16T08:04:47.265Z,100.00
2022-11-16T08:07:17.406Z,100.00
2022-11-16T08:09:54.523Z,100.00
2022-11-16T08:12:28.513Z,100.00
2022-11-16T08:14:58.618Z,100.00
2022-11-16T08:17:28.862Z,100.00
2022-11-16T08:19:59.250Z,100.00
2022-11-16T08:22:29.632Z,100.00
2022-11-16T08:24:59.851Z,100.00
2022-11-16T08:27:34.402Z,100.00
2022-11-16T08:30:09.767Z,100.00
2022-11-16T08:32:42.518Z,100.00
2022-11-16T08:35:14.126Z,100.00
2022-11-16T08:37:44.190Z,100.00
2022-11-16T08:40:15.443Z,100.00
2022-11-16T08:42:48.961Z,100.00
2022-11-16T08:45:19.272Z,100.00
2022-11-16T08:47:49.890Z,100.00
2022-11-16T08:50:22.167Z,100.00
2022-11-16T08:52:52.234Z,100.00
2022-11-16T08:55:22.531Z,100.00
2022-11-16T08:57:55.211Z,100.00
2022-11-16T09:00:27.528Z,100.00
2022-11-16T09:02:57.530Z,100.00
2022-11-16T09:05:27.565Z,100.00
2022-11-16T09:07:57.830Z,100.00
2022-11-16T09:10:27.879Z,100.00
2022-11-16T09:13:01.286Z,100.00
2022-11-16T09:15:31.832Z,100.00
2022-11-16T09:18:02.256Z,100.00
2022-11-16T09:20:32.318Z,100.00
2022-11-16T09:23:02.594Z,100.00
2022-11-16T09:25:32.653Z,100.00
2022-11-16T09:28:06.275Z,100.00
2022-11-16T09:30:36.310Z,100.00
2022-11-16T09:33:06.458Z,100.00
2022-11-16T09:35:37.688Z,100.00
2022-11-16T09:38:09.895Z,100.00
2022-11-16T09:40:43.872Z,100.00
2022-11-16T09:43:45.326Z,100.00
2022-11-16T09:46:27.989Z,100.00
2022-11-16T09:49:13.948Z,100.00
2022-11-16T09:51:50.929Z,100.00
2022-11-16T09:54:27.044Z,100.00
2022-11-16T09:57:05.552Z,100.00
2022-11-16T09:59:46.814Z,100.00
2022-11-16T10:02:28.030Z,100.00
2022-11-16T10:05:07.003Z,100.00
2022-11-16T10:07:45.240Z,100.00
2022-11-16T10:10:17.720Z,100.00
2022-11-16T10:12:55.637Z,100.00
2022-11-16T10:15:48.050Z,100.00
2022-11-16T10:18:41.229Z,100.00
2022-11-16T10:21:28.411Z,100.00
2022-11-16T10:24:26.861Z,100.00
2022-11-16T10:27:21.774Z,100.00
2022-11-16T10:30:04.926Z,100.00
2022-11-16T10:32:46.667Z,100.00
2022-11-16T10:35:25.658Z,100.00
2022-11-16T10:37:59.038Z,100.00
2022-11-16T10:40:33.080Z,100.00
2022-11-16T10:43:13.753Z,100.00
2022-11-16T10:45:53.396Z,100.00
2022-11-16T10:48:41.385Z,100.00
2022-11-16T10:51:12.815Z,100.00
2022-11-16T10:53:45.707Z,100.00
2022-11-16T10:56:25.046Z,100.00
2022-11-16T10:58:59.299Z,100.00
2022-11-16T11:01:37.867Z,100.00
2022-11-16T11:04:24.726Z,100.00
2022-11-16T11:06:57.971Z,100.00
2022-11-16T11:09:33.246Z,100.00
2022-11-16T11:12:30.503Z,100.00
2022-11-16T11:15:26.174Z,100.00
2022-11-16T11:18:19.802Z,100.00
2022-11-16T11:21:10.224Z,100.00
2022-11-16T11:23:50.812Z,100.00
2022-11-16T11:26:37.113Z,100.00
2022-11-16T11:29:24.730Z,100.00
2022-11-16T11:31:57.936Z,100.00
2022-11-16T11:34:32.579Z,100.00
2022-11-16T11:37:08.650Z,100.00
2022-11-16T11:39:40.172Z,100.00
2022-11-16T11:42:26.482Z,100.00
2022-11-16T11:45:01.528Z,100.00
2022-11-16T11:48:00.725Z,100.00
2022-11-16T11:50:47.050Z,100.00
2022-11-16T11:53:37.138Z,100.00
2022-11-16T11:56:08.873Z,100.00
2022-11-16T11:58:44.128Z,100.00
2022-11-16T12:02:06.436Z,100.00
2022-11-16T12:05:12.999Z,100.00
2022-11-16T12:08:25.864Z,100.00
2022-11-16T12:11:03.302Z,100.00
2022-11-16T12:14:06.490Z,100.00
2022-11-16T12:16:53.339Z,100.00
2022-11-16T12:20:18.106Z,100.00
2022-11-16T12:23:15.942Z,100.00
2022-11-16T12:26:02.481Z,100.00
2022-11-16T12:28:58.424Z,100.00
2022-11-16T12:32:09.049Z,100.00
2022-11-16T12:34:59.406Z,100.00
2022-11-16T12:37:41.139Z,100.00
2022-11-16T12:40:45.163Z,100.00
2022-11-16T12:43:34.271Z,100.00
2022-11-16T12:46:17.866Z,100.00
2022-11-16T12:49:27.918Z,100.00
2022-11-16T12:52:22.838Z,100.00
2022-11-16T12:55:26.484Z,100.00
2022-11-16T12:58:17.195Z,100.00
2022-11-16T13:01:04.704Z,100.00
2022-11-16T13:03:47.005Z,100.00
2022-11-16T13:06:23.571Z,100.00
2022-11-16T13:09:04.113Z,100.00
2022-11-16T13:11:40.773Z,100.00
2022-11-16T13:14:19.855Z,100.00
2022-11-16T13:16:54.874Z,100.00
2022-11-16T13:19:27.198Z,100.00
2022-11-16T13:22:06.272Z,100.00
2022-11-16T13:24:52.620Z,100.00
2022-11-16T13:27:38.702Z,100.00
2022-11-16T13:30:21.564Z,100.00
2022-11-16T13:33:14.258Z,100.00
2022-11-16T13:35:44.815Z,100.00
2022-11-16T13:38:16.054Z,100.00
2022-11-16T13:40:46.155Z,100.00
2022-11-16T13:43:22.672Z,100.00
2022-11-16T13:46:03.958Z,100.00
2022-11-16T13:48:40.195Z,100.00
2022-11-16T13:51:21.295Z,99.70
2022-11-16T13:56:52.898Z,100.00
2022-11-16T13:59:29.824Z,96.30
2022-11-16T14:02:03.208Z,100.00
2022-11-16T14:04:57.949Z,100.00
2022-11-16T14:07:43.252Z,92.25
2022-11-16T14:10:35.002Z,96.86
2022-11-16T14:13:05.238Z,100.00
2022-11-16T14:15:38.741Z,95.23
2022-11-16T14:18:39.782Z,93.07
2022-11-16T14:21:26.840Z,92.68
2022-11-16T14:24:27.258Z,95.13
2022-11-16T14:27:13.266Z,87.34
2022-11-16T14:30:00.487Z,86.48
2022-11-16T14:32:42.385Z,88.17
2022-11-16T14:35:35.180Z,90.55
2022-11-16T14:38:19.525Z,93.57
2022-11-16T14:40:59.104Z,100.00
2022-11-16T14:43:37.729Z,100.00
2022-11-16T14:46:12.188Z,100.00
2022-11-16T14:48:48.499Z,100.00
2022-11-16T14:51:25.243Z,100.00
2022-11-16T14:54:05.310Z,100.00
2022-11-16T14:56:35.344Z,100.00
2022-11-16T14:59:06.306Z,100.00
2022-11-16T15:01:42.698Z,100.00
2022-11-16T15:04:15.225Z,100.00
2022-11-16T15:06:51.338Z,100.00
2022-11-16T15:09:30.787Z,100.00
2022-11-16T15:12:14.734Z,100.00
2022-11-16T15:14:52.774Z,100.00
2022-11-16T15:17:31.755Z,100.00
2022-11-16T15:20:06.966Z,100.00
2022-11-16T15:22:46.410Z,100.00
2022-11-16T15:25:32.798Z,100.00
2022-11-16T15:28:06.948Z,100.00
2022-11-16T15:30:40.745Z,100.00
2022-11-16T15:33:14.293Z,100.00
2022-11-16T15:35:44.456Z,100.00
2022-11-16T15:38:21.308Z,100.00
2022-11-16T15:40:57.206Z,100.00
2022-11-16T15:43:36.092Z,100.00
2022-11-16T15:46:11.876Z,100.00
2022-11-16T15:48:42.883Z,100.00
2022-11-16T15:51:20.145Z,100.00
2022-11-16T15:53:53.035Z,100.00
2022-11-16T15:56:35.480Z,100.00
2022-11-16T15:59:15.800Z,100.00
2022-11-16T16:01:47.962Z,100.00
2022-11-16T16:04:21.202Z,100.00
2022-11-16T16:06:55.062Z,100.00
2022-11-16T16:09:30.042Z,100.00
2022-11-16T16:12:20.491Z,100.00
2022-11-16T16:14:52.635Z,100.00
2022-11-16T16:17:28.159Z,100.00
2022-11-16T16:20:01.103Z,100.00
2022-11-16T16:22:34.826Z,100.00
2022-11-16T16:25:06.538Z,100.00
2022-11-16T16:27:42.839Z,100.00
2022-11-16T16:30:17.257Z,100.00
2022-11-16T16:32:52.074Z,100.00
2022-11-16T16:35:26.106Z,100.00
2022-11-16T16:38:01.551Z,100.00
2022-11-16T16:40:32.152Z,100.00
2022-11-16T16:43:04.696Z,100.00
2022-11-16T16:45:41.460Z,100.00
2022-11-16T16:48:12.677Z,100.00
2022-11-16T16:50:43.235Z,100.00
2022-11-16T16:53:15.814Z,100.00
2022-11-16T16:55:49.011Z,100.00
2022-11-16T16:58:21.678Z,100.00
2022-11-16T17:00:53.719Z,100.00
2022-11-16T17:03:27.021Z,100.00
2022-11-16T17:06:03.883Z,100.00
2022-11-16T17:08:37.136Z,100.00
2022-11-16T17:11:09.058Z,100.00
2022-11-16T17:13:41.745Z,100.00
2022-11-16T17:16:12.130Z,100.00
2022-11-16T17:18:42.220Z,100.00
2022-11-16T17:21:13.522Z,100.00
2022-11-16T17:23:43.565Z,100.00
2022-11-16T17:26:13.662Z,100.00
2022-11-16T17:28:46.425Z,100.00
2022-11-16T17:31:17.568Z,100.00
2022-11-16T17:33:47.816Z,100.00
2022-11-16T17:36:17.948Z,100.00
2022-11-16T17:38:48.285Z,100.00
2022-11-16T17:41:21.615Z,100.00
2022-11-16T17:43:57.161Z,100.00
2022-11-16T17:46:29.073Z,100.00
2022-11-16T17:48:59.611Z,100.00
2022-11-16T17:51:30.308Z,100.00
2022-11-16T17:54:00.462Z,100.00
2022-11-16T17:56:31.670Z,100.00
2022-11-16T17:59:04.661Z,100.00
2022-11-16T18:01:35.281Z,100.00
2022-11-16T18:04:05.609Z,100.00
2022-11-16T18:06:35.715Z,100.00
2022-11-16T18:09:05.820Z,100.00
2022-11-16T18:11:35.999Z,100.00
2022-11-16T18:14:10.543Z,100.00
2022-11-16T18:16:44.447Z,100.00
2022-11-16T18:19:20.198Z,100.00
2022-11-16T18:21:50.988Z,100.00
2022-11-16T18:24:21.040Z,100.00
2022-11-16T18:26:51.156Z,100.00
2022-11-16T18:29:23.745Z,100.00
2022-11-16T18:31:53.802Z,100.00
2022-11-16T18:34:23.821Z,100.00
2022-11-16T18:36:53.852Z,100.00
2022-11-16T18:39:23.842Z,100.00
2022-11-16T18:41:55.326Z,100.00
2022-11-16T18:44:28.077Z,100.00
2022-11-16T18:46:59.386Z,100.00
2022-11-16T18:49:29.402Z,100.00
2022-11-16T18:51:59.484Z,100.00
2022-11-16T18:54:29.492Z,100.00
2022-11-16T18:56:59.843Z,100.00
2022-11-16T18:59:32.515Z,100.00
2022-11-16T19:02:02.613Z,100.00
2022-11-16T19:04:32.749Z,100.00
2022-11-16T19:07:02.816Z,100.00
2022-11-16T19:09:32.882Z,100.00
2022-11-16T19:12:02.894Z,100.00
2022-11-16T19:14:35.506Z,100.00
2022-11-16T19:17:05.759Z,100.00
2022-11-16T19:19:35.765Z,100.00
2022-11-16T19:22:06.275Z,100.00
2022-11-16T19:24:36.304Z,100.00
2022-11-16T19:27:06.665Z,100.00
2022-11-16T19:29:39.299Z,100.00
2022-11-16T19:32:09.335Z,100.00
2022-11-16T19:34:39.312Z,100.00
2022-11-16T19:37:09.425Z,100.00
2022-11-16T19:39:39.488Z,100.00
2022-11-16T19:42:09.910Z,100.00
2022-11-16T19:44:42.555Z,100.00
2022-11-16T19:47:12.584Z,100.00
2022-11-16T19:49:42.672Z,100.00
2022-11-16T19:52:12.804Z,100.00
2022-11-16T19:54:42.790Z,100.00
2022-11-16T19:57:13.030Z,100.00
2022-11-16T19:59:46.084Z,100.00
2022-11-16T20:02:16.393Z,100.00
2022-11-16T20:04:46.515Z,100.00
2022-11-16T20:07:18.168Z,100.00
2022-11-16T20:09:53.229Z,100.00
2022-11-16T20:12:23.610Z,100.00
2022-11-16T20:14:56.224Z,100.00
2022-11-16T20:17:26.260Z,100.00
2022-11-16T20:19:56.439Z,100.00
2022-11-16T20:22:26.818Z,100.00
2022-11-16T20:24:57.442Z,100.00
2022-11-16T20:27:27.458Z,100.00
2022-11-16T20:30:03.755Z,100.00
2022-11-16T20:32:36.753Z,100.00
2022-11-16T20:35:07.374Z,100.00
2022-11-16T20:37:37.509Z,100.00
2022-11-16T20:40:09.577Z,100.00
2022-11-16T20:42:39.957Z,100.00
2022-11-16T20:45:14.324Z,100.00
2022-11-16T20:47:44.404Z,100.00
2022-11-16T20:50:14.589Z,100.00
2022-11-16T20:52:48.562Z,100.00
2022-11-16T20:55:22.636Z,100.00
2022-11-16T20:57:52.657Z,100.00
2022-11-16T21:00:25.916Z,100.00
2022-11-16T21:02:56.473Z,100.00
2022-11-16T21:05:26.446Z,100.00
2022-11-16T21:07:56.727Z,100.00
2022-11-16T21:10:26.730Z,100.00
2022-11-16T21:13:09.221Z,100.00
2022-11-16T21:15:41.820Z,100.00
2022-11-16T21:18:12.061Z,100.00
2022-11-16T21:20:42.098Z,100.00
2022-11-16T21:23:12.195Z,100.00
2022-11-16T21:25:42.496Z,100.00
2022-11-16T21:28:12.522Z,100.00
2022-11-16T21:30:45.215Z,100.00
2022-11-16T21:33:15.184Z,100.00
2022-11-16T21:35:45.251Z,100.00
2022-11-16T21:38:15.259Z,100.00
2022-11-16T21:40:46.720Z,100.00
2022-11-16T21:43:17.239Z,100.00
2022-11-16T21:45:51.521Z,100.00
2022-11-16T21:48:21.690Z,100.00
2022-11-16T21:51:01.510Z,100.00
2022-11-16T21:53:32.220Z,100.00
2022-11-16T21:56:02.994Z,100.00
2022-11-16T21:58:33.273Z,100.00
2022-11-16T22:01:06.330Z,100.00
2022-11-16T22:03:37.065Z,100.00
2022-11-16T22:06:22.463Z,100.00
2022-11-16T22:08:52.995Z,100.00
2022-11-16T22:11:23.478Z,100.00
2022-11-16T22:13:53.775Z,100.00
2022-11-16T22:16:26.442Z,100.00
2022-11-16T22:18:56.631Z,100.00
2022-11-16T22:21:26.591Z,100.00
2022-11-16T22:23:56.653Z,100.00
2022-11-16T22:26:27.027Z,100.00
2022-11-16T22:28:57.045Z,100.00
2022-11-16T22:31:29.587Z,100.00
2022-11-16T22:33:59.710Z,100.00
2022-11-16T22:36:29.668Z,100.00
2022-11-16T22:38:59.789Z,100.00
2022-11-16T22:41:29.843Z,100.00
2022-11-16T22:43:59.842Z,100.00
2022-11-16T22:46:32.509Z,100.00
2022-11-16T22:49:02.746Z,100.00
2022-11-16T22:51:33.631Z,100.00
2022-11-16T22:54:07.192Z,100.00
2022-11-16T22:56:37.353Z,100.00
2022-11-16T22:59:08.943Z,100.00
2022-11-16T23:01:41.940Z,100.00
2022-11-16T23:04:12.297Z,100.00
2022-11-16T23:06:42.363Z,100.00
2022-11-16T23:09:12.349Z,100.00
2022-11-16T23:11:54.797Z,100.00
2022-11-16T23:14:37.373Z,100.00
2022-11-16T23:17:10.153Z,100.00
2022-11-16T23:19:52.900Z,100.00
2022-11-16T23:22:37.254Z,100.00
2022-11-16T23:25:21.813Z,100.00
2022-11-16T23:27:59.815Z,100.00
2022-11-16T23:30:29.939Z,100.00
2022-11-16T23:33:02.602Z,100.00
2022-11-16T23:35:33.790Z,100.00
2022-11-16T23:38:06.494Z,100.00
2022-11-16T23:40:39.962Z,100.00
2022-11-16T23:43:25.554Z,100.00
2022-11-16T23:45:56.447Z,100.00
2022-11-16T23:48:29.025Z,100.00
2022-11-16T23:50:59.068Z,100.00
2022-11-16T23:53:29.131Z,100.00
2022-11-16T23:56:06.145Z,100.00
2022-11-16T23:58:36.410Z,100.00
